KFYV/FYV METAR and TAF weather

Enter ICAO airport designator
Station Type Date Time Source
KFYV METAR 2019/12/10 18:53 UTC NOAA

KFYV 101853Z 00000KT 10SM CLR 04/M09 A3031 RMK AO2 SLP273 T00441094


Station Type Date Time Source
KFYV Decoded METAR 2019/12/10 18:53 UTC NOAA

FAYETTEVILLE DRAKE FIELD, AR, United States (KFYV) 36-00N 94-10W 379M
Dec 10, 2019 - 01:53 PM EST / 2019.12.10 1853 UTC
Wind: Calm:0
Visibility: 10 mile(s):0
Sky conditions: clear
Temperature: 39.9 F (4.4 C)
Dew Point: 15.1 F (-9.4 C)
Relative Humidity: 35%
Pressure (altimeter): 30.31 in. Hg (1026 hPa)
ob: KFYV 101853Z 00000KT 10SM CLR 04/M09 A3031 RMK AO2 SLP273 T00441094
cycle: 19

Station Type Date Time Source
KFYV TAF 2019/12/10 18:36 UTC NOAA

TAF KFYV 101733Z 1018/1118 00000KT P6SM BKN250
FM102000 VRB03KT P6SM SKC
FM111200 21006KT P6SM SKC

Example: see airport list